sensor_id;sensor_type;location;lat;lon;timestamp;P1;durP1;ratioP1;P2;durP2;ratioP2
71042;SDS011;58696;52.134;5.500;2023-07-02T00:00:15;12.10;;;3.85;;
71042;SDS011;58696;52.134;5.500;2023-07-02T00:02:44;7.90;;;3.80;;
71042;SDS011;58696;52.134;5.500;2023-07-02T00:05:16;11.05;;;3.90;;
71042;SDS011;58696;52.134;5.500;2023-07-02T00:07:44;8.35;;;3.70;;
71042;SDS011;58696;52.134;5.500;2023-07-02T00:10:13;7.45;;;3.65;;
71042;SDS011;58696;52.134;5.500;2023-07-02T00:12:42;6.47;;;3.65;;
71042;SDS011;58696;52.134;5.500;2023-07-02T00:15:14;9.13;;;3.47;;
71042;SDS011;58696;52.134;5.500;2023-07-02T00:17:45;12.45;;;3.72;;
71042;SDS011;58696;52.134;5.500;2023-07-02T00:20:16;9.98;;;3.42;;
71042;SDS011;58696;52.134;5.500;2023-07-02T00:22:43;6.05;;;3.30;;
71042;SDS011;58696;52.134;5.500;2023-07-02T00:25:12;8.88;;;3.47;;
71042;SDS011;58696;52.134;5.500;2023-07-02T00:32:35;9.02;;;3.63;;
71042;SDS011;58696;52.134;5.500;2023-07-02T00:35:04;11.43;;;3.40;;
71042;SDS011;58696;52.134;5.500;2023-07-02T00:37:31;12.73;;;3.70;;
71042;SDS011;58696;52.134;5.500;2023-07-02T00:39:58;9.03;;;3.40;;
71042;SDS011;58696;52.134;5.500;2023-07-02T00:42:24;6.65;;;3.08;;
71042;SDS011;58696;52.134;5.500;2023-07-02T00:44:56;8.30;;;3.80;;
71042;SDS011;58696;52.134;5.500;2023-07-02T00:47:34;9.30;;;3.78;;
71042;SDS011;58696;52.134;5.500;2023-07-02T00:50:03;6.55;;;3.67;;
71042;SDS011;58696;52.134;5.500;2023-07-02T00:52:32;8.70;;;3.88;;
71042;SDS011;58696;52.134;5.500;2023-07-02T00:55:00;14.85;;;4.07;;
71042;SDS011;58696;52.134;5.500;2023-07-02T00:57:32;7.82;;;3.83;;
71042;SDS011;58696;52.134;5.500;2023-07-02T00:59:59;7.20;;;4.20;;
71042;SDS011;58696;52.134;5.500;2023-07-02T01:02:32;12.45;;;4.38;;
71042;SDS011;58696;52.134;5.500;2023-07-02T01:04:59;5.82;;;3.70;;
71042;SDS011;58696;52.134;5.500;2023-07-02T01:07:27;13.65;;;4.25;;
71042;SDS011;58696;52.134;5.500;2023-07-02T01:09:54;6.55;;;3.85;;
71042;SDS011;58696;52.134;5.500;2023-07-02T01:12:22;9.30;;;4.18;;
71042;SDS011;58696;52.134;5.500;2023-07-02T01:17:24;8.13;;;4.05;;
71042;SDS011;58696;52.134;5.500;2023-07-02T01:19:54;10.80;;;4.88;;
71042;SDS011;58696;52.134;5.500;2023-07-02T01:22:26;9.05;;;4.40;;
71042;SDS011;58696;52.134;5.500;2023-07-02T01:24:55;9.95;;;4.45;;
71042;SDS011;58696;52.134;5.500;2023-07-02T01:27:24;15.65;;;4.72;;
71042;SDS011;58696;52.134;5.500;2023-07-02T01:29:54;10.00;;;4.03;;
71042;SDS011;58696;52.134;5.500;2023-07-02T01:32:24;12.00;;;4.00;;
71042;SDS011;58696;52.134;5.500;2023-07-02T01:34:53;11.23;;;4.38;;
71042;SDS011;58696;52.134;5.500;2023-07-02T01:37:20;8.65;;;4.45;;
71042;SDS011;58696;52.134;5.500;2023-07-02T01:39:47;14.25;;;4.43;;
71042;SDS011;58696;52.134;5.500;2023-07-02T01:42:14;11.23;;;4.32;;
71042;SDS011;58696;52.134;5.500;2023-07-02T01:44:46;7.72;;;3.92;;
71042;SDS011;58696;52.134;5.500;2023-07-02T01:47:14;11.75;;;4.43;;
71042;SDS011;58696;52.134;5.500;2023-07-02T01:52:09;14.65;;;3.97;;
71042;SDS011;58696;52.134;5.500;2023-07-02T01:54:38;11.27;;;4.22;;
71042;SDS011;58696;52.134;5.500;2023-07-02T01:57:04;9.48;;;4.35;;
71042;SDS011;58696;52.134;5.500;2023-07-02T01:59:31;10.68;;;4.35;;
71042;SDS011;58696;52.134;5.500;2023-07-02T02:01:58;9.50;;;4.60;;
71042;SDS011;58696;52.134;5.500;2023-07-02T02:04:26;8.95;;;4.15;;
71042;SDS011;58696;52.134;5.500;2023-07-02T02:06:56;8.52;;;4.22;;
71042;SDS011;58696;52.134;5.500;2023-07-02T02:09:25;13.25;;;4.30;;
71042;SDS011;58696;52.134;5.500;2023-07-02T02:11:57;13.50;;;4.20;;
71042;SDS011;58696;52.134;5.500;2023-07-02T02:14:23;18.30;;;5.10;;
71042;SDS011;58696;52.134;5.500;2023-07-02T02:16:53;11.07;;;4.50;;
71042;SDS011;58696;52.134;5.500;2023-07-02T02:19:20;7.97;;;4.43;;
71042;SDS011;58696;52.134;5.500;2023-07-02T02:21:46;11.43;;;4.93;;
71042;SDS011;58696;52.134;5.500;2023-07-02T02:24:16;12.50;;;5.03;;
71042;SDS011;58696;52.134;5.500;2023-07-02T02:26:45;10.82;;;5.05;;
71042;SDS011;58696;52.134;5.500;2023-07-02T02:29:15;9.80;;;4.45;;
71042;SDS011;58696;52.134;5.500;2023-07-02T02:31:47;11.43;;;5.03;;
71042;SDS011;58696;52.134;5.500;2023-07-02T02:34:16;9.57;;;4.50;;
71042;SDS011;58696;52.134;5.500;2023-07-02T02:36:43;11.60;;;4.90;;
71042;SDS011;58696;52.134;5.500;2023-07-02T02:39:11;9.63;;;4.47;;
71042;SDS011;58696;52.134;5.500;2023-07-02T02:41:38;17.67;;;5.55;;
71042;SDS011;58696;52.134;5.500;2023-07-02T02:44:04;17.25;;;5.40;;
71042;SDS011;58696;52.134;5.500;2023-07-02T02:46:34;15.20;;;4.95;;
71042;SDS011;58696;52.134;5.500;2023-07-02T02:49:01;11.43;;;5.13;;
71042;SDS011;58696;52.134;5.500;2023-07-02T02:51:32;8.88;;;4.70;;
71042;SDS011;58696;52.134;5.500;2023-07-02T02:54:01;13.65;;;5.05;;
71042;SDS011;58696;52.134;5.500;2023-07-02T02:56:30;18.13;;;5.65;;
71042;SDS011;58696;52.134;5.500;2023-07-02T02:58:59;13.32;;;5.45;;
71042;SDS011;58696;52.134;5.500;2023-07-02T03:01:30;12.13;;;5.03;;
71042;SDS011;58696;52.134;5.500;2023-07-02T03:03:59;17.80;;;5.72;;
71042;SDS011;58696;52.134;5.500;2023-07-02T03:06:26;11.93;;;5.20;;
71042;SDS011;58696;52.134;5.500;2023-07-02T03:08:55;13.85;;;5.03;;
71042;SDS011;58696;52.134;5.500;2023-07-02T03:11:22;12.90;;;5.57;;
71042;SDS011;58696;52.134;5.500;2023-07-02T03:13:53;12.25;;;5.55;;
71042;SDS011;58696;52.134;5.500;2023-07-02T03:16:19;19.25;;;6.18;;
71042;SDS011;58696;52.134;5.500;2023-07-02T03:18:48;13.32;;;6.13;;
71042;SDS011;58696;52.134;5.500;2023-07-02T03:21:15;12.07;;;5.07;;
71042;SDS011;58696;52.134;5.500;2023-07-02T03:23:41;13.43;;;5.57;;
71042;SDS011;58696;52.134;5.500;2023-07-02T03:26:13;22.05;;;6.30;;
71042;SDS011;58696;52.134;5.500;2023-07-02T03:28:42;9.77;;;5.20;;
71042;SDS011;58696;52.134;5.500;2023-07-02T03:31:11;12.70;;;6.10;;
71042;SDS011;58696;52.134;5.500;2023-07-02T03:33:40;10.45;;;5.35;;
71042;SDS011;58696;52.134;5.500;2023-07-02T03:36:06;12.93;;;5.45;;
71042;SDS011;58696;52.134;5.500;2023-07-02T03:38:33;13.18;;;5.32;;
71042;SDS011;58696;52.134;5.500;2023-07-02T03:40:59;14.40;;;5.68;;
71042;SDS011;58696;52.134;5.500;2023-07-02T03:43:26;11.55;;;5.40;;
71042;SDS011;58696;52.134;5.500;2023-07-02T03:45:57;19.23;;;5.55;;
71042;SDS011;58696;52.134;5.500;2023-07-02T03:48:24;12.57;;;6.03;;
71042;SDS011;58696;52.134;5.500;2023-07-02T03:50:52;18.80;;;5.55;;
71042;SDS011;58696;52.134;5.500;2023-07-02T03:53:19;13.68;;;5.60;;
71042;SDS011;58696;52.134;5.500;2023-07-02T03:55:46;12.35;;;5.75;;
71042;SDS011;58696;52.134;5.500;2023-07-02T03:58:15;17.67;;;5.75;;
71042;SDS011;58696;52.134;5.500;2023-07-02T04:00:41;14.25;;;5.82;;
71042;SDS011;58696;52.134;5.500;2023-07-02T04:03:10;13.57;;;5.47;;
71042;SDS011;58696;52.134;5.500;2023-07-02T04:05:37;20.65;;;5.82;;
71042;SDS011;58696;52.134;5.500;2023-07-02T04:08:03;13.23;;;5.50;;
71042;SDS011;58696;52.134;5.500;2023-07-02T04:10:30;10.38;;;5.22;;
71042;SDS011;58696;52.134;5.500;2023-07-02T04:12:57;14.68;;;5.97;;
71042;SDS011;58696;52.134;5.500;2023-07-02T04:15:23;12.65;;;5.50;;
71042;SDS011;58696;52.134;5.500;2023-07-02T04:17:52;16.65;;;6.15;;
71042;SDS011;58696;52.134;5.500;2023-07-02T04:22:55;12.35;;;5.63;;
71042;SDS011;58696;52.134;5.500;2023-07-02T04:25:21;14.10;;;5.00;;
71042;SDS011;58696;52.134;5.500;2023-07-02T04:28:12;17.00;;;5.60;;
71042;SDS011;58696;52.134;5.500;2023-07-02T04:30:43;13.10;;;5.80;;
71042;SDS011;58696;52.134;5.500;2023-07-02T04:33:10;22.92;;;6.35;;
71042;SDS011;58696;52.134;5.500;2023-07-02T04:35:42;20.77;;;6.35;;
71042;SDS011;58696;52.134;5.500;2023-07-02T04:38:14;17.83;;;5.88;;
71042;SDS011;58696;52.134;5.500;2023-07-02T04:40:41;13.18;;;5.57;;
71042;SDS011;58696;52.134;5.500;2023-07-02T04:43:11;12.50;;;5.43;;
71042;SDS011;58696;52.134;5.500;2023-07-02T04:45:38;17.50;;;6.05;;
71042;SDS011;58696;52.134;5.500;2023-07-02T04:48:10;12.07;;;5.80;;
71042;SDS011;58696;52.134;5.500;2023-07-02T04:50:37;13.43;;;5.65;;
71042;SDS011;58696;52.134;5.500;2023-07-02T04:53:06;18.35;;;5.95;;
71042;SDS011;58696;52.134;5.500;2023-07-02T04:55:33;13.50;;;5.72;;
71042;SDS011;58696;52.134;5.500;2023-07-02T04:58:02;16.80;;;5.97;;
71042;SDS011;58696;52.134;5.500;2023-07-02T05:00:32;16.25;;;6.22;;
71042;SDS011;58696;52.134;5.500;2023-07-02T05:02:58;13.63;;;5.50;;
71042;SDS011;58696;52.134;5.500;2023-07-02T05:05:27;17.60;;;5.45;;
71042;SDS011;58696;52.134;5.500;2023-07-02T05:07:56;19.40;;;6.20;;
71042;SDS011;58696;52.134;5.500;2023-07-02T05:10:22;16.27;;;5.93;;
71042;SDS011;58696;52.134;5.500;2023-07-02T05:12:49;11.38;;;5.68;;
71042;SDS011;58696;52.134;5.500;2023-07-02T05:15:15;13.13;;;5.75;;
71042;SDS011;58696;52.134;5.500;2023-07-02T05:17:45;14.88;;;6.28;;
71042;SDS011;58696;52.134;5.500;2023-07-02T05:20:11;11.15;;;5.75;;
71042;SDS011;58696;52.134;5.500;2023-07-02T05:22:41;17.98;;;6.28;;
71042;SDS011;58696;52.134;5.500;2023-07-02T05:25:08;16.13;;;5.82;;
71042;SDS011;58696;52.134;5.500;2023-07-02T05:27:35;25.02;;;6.20;;
71042;SDS011;58696;52.134;5.500;2023-07-02T05:30:02;16.48;;;6.18;;
71042;SDS011;58696;52.134;5.500;2023-07-02T05:32:33;15.73;;;6.13;;
71042;SDS011;58696;52.134;5.500;2023-07-02T05:35:00;18.48;;;6.18;;
71042;SDS011;58696;52.134;5.500;2023-07-02T05:37:32;22.10;;;7.07;;
71042;SDS011;58696;52.134;5.500;2023-07-02T05:40:01;16.67;;;6.45;;
71042;SDS011;58696;52.134;5.500;2023-07-02T05:42:28;12.00;;;6.07;;
71042;SDS011;58696;52.134;5.500;2023-07-02T05:44:57;14.82;;;6.20;;
71042;SDS011;58696;52.134;5.500;2023-07-02T05:47:26;22.45;;;6.50;;
71042;SDS011;58696;52.134;5.500;2023-07-02T05:49:56;14.65;;;5.80;;
71042;SDS011;58696;52.134;5.500;2023-07-02T05:52:22;18.92;;;7.13;;
71042;SDS011;58696;52.134;5.500;2023-07-02T05:54:52;15.10;;;6.88;;
71042;SDS011;58696;52.134;5.500;2023-07-02T05:57:21;16.40;;;5.95;;
71042;SDS011;58696;52.134;5.500;2023-07-02T05:59:49;19.25;;;6.47;;
71042;SDS011;58696;52.134;5.500;2023-07-02T06:02:21;21.83;;;7.60;;
71042;SDS011;58696;52.134;5.500;2023-07-02T06:04:50;16.58;;;6.78;;
71042;SDS011;58696;52.134;5.500;2023-07-02T06:07:16;15.70;;;6.30;;
71042;SDS011;58696;52.134;5.500;2023-07-02T06:09:45;15.52;;;6.15;;
71042;SDS011;58696;52.134;5.500;2023-07-02T06:12:14;18.75;;;7.30;;
71042;SDS011;58696;52.134;5.500;2023-07-02T06:14:47;20.73;;;6.75;;
71042;SDS011;58696;52.134;5.500;2023-07-02T06:17:16;16.58;;;6.82;;
71042;SDS011;58696;52.134;5.500;2023-07-02T06:19:44;18.98;;;7.57;;
71042;SDS011;58696;52.134;5.500;2023-07-02T06:22:15;16.15;;;6.25;;
71042;SDS011;58696;52.134;5.500;2023-07-02T06:24:42;17.50;;;6.17;;
71042;SDS011;58696;52.134;5.500;2023-07-02T06:27:08;16.87;;;6.10;;
71042;SDS011;58696;52.134;5.500;2023-07-02T06:29:37;14.85;;;6.43;;
71042;SDS011;58696;52.134;5.500;2023-07-02T06:32:05;17.45;;;6.57;;
71042;SDS011;58696;52.134;5.500;2023-07-02T06:34:34;14.82;;;5.13;;
71042;SDS011;58696;52.134;5.500;2023-07-02T06:37:04;15.15;;;5.68;;
71042;SDS011;58696;52.134;5.500;2023-07-02T06:39:32;15.48;;;5.90;;
71042;SDS011;58696;52.134;5.500;2023-07-02T06:42:01;20.17;;;6.03;;
71042;SDS011;58696;52.134;5.500;2023-07-02T06:44:29;18.48;;;6.18;;
71042;SDS011;58696;52.134;5.500;2023-07-02T06:46:58;19.17;;;5.85;;
71042;SDS011;58696;52.134;5.500;2023-07-02T06:49:25;14.57;;;5.23;;
71042;SDS011;58696;52.134;5.500;2023-07-02T06:51:54;12.48;;;5.22;;
71042;SDS011;58696;52.134;5.500;2023-07-02T06:54:25;16.92;;;5.68;;
71042;SDS011;58696;52.134;5.500;2023-07-02T06:56:55;15.18;;;5.97;;
71042;SDS011;58696;52.134;5.500;2023-07-02T06:59:27;14.27;;;6.30;;
71042;SDS011;58696;52.134;5.500;2023-07-02T07:01:58;11.48;;;4.88;;
71042;SDS011;58696;52.134;5.500;2023-07-02T07:04:27;10.88;;;4.57;;
71042;SDS011;58696;52.134;5.500;2023-07-02T07:06:54;16.67;;;5.13;;
71042;SDS011;58696;52.134;5.500;2023-07-02T07:09:25;17.65;;;5.50;;
71042;SDS011;58696;52.134;5.500;2023-07-02T07:11:57;12.45;;;5.13;;
71042;SDS011;58696;52.134;5.500;2023-07-02T07:14:24;16.65;;;5.47;;
71042;SDS011;58696;52.134;5.500;2023-07-02T07:16:57;13.80;;;4.78;;
71042;SDS011;58696;52.134;5.500;2023-07-02T07:19:27;11.68;;;4.75;;
71042;SDS011;58696;52.134;5.500;2023-07-02T07:21:54;10.05;;;4.88;;
71042;SDS011;58696;52.134;5.500;2023-07-02T07:24:23;12.45;;;4.93;;
71042;SDS011;58696;52.134;5.500;2023-07-02T07:26:52;16.42;;;5.15;;
71042;SDS011;58696;52.134;5.500;2023-07-02T07:29:22;11.27;;;4.90;;
71042;SDS011;58696;52.134;5.500;2023-07-02T07:31:50;12.30;;;5.30;;
71042;SDS011;58696;52.134;5.500;2023-07-02T07:34:21;10.77;;;4.70;;
71042;SDS011;58696;52.134;5.500;2023-07-02T07:36:48;10.93;;;4.50;;
71042;SDS011;58696;52.134;5.500;2023-07-02T07:39:14;18.23;;;4.87;;
71042;SDS011;58696;52.134;5.500;2023-07-02T07:41:41;10.77;;;5.00;;
71042;SDS011;58696;52.134;5.500;2023-07-02T07:44:10;14.35;;;4.72;;
71042;SDS011;58696;52.134;5.500;2023-07-02T07:46:41;9.82;;;4.45;;
71042;SDS011;58696;52.134;5.500;2023-07-02T07:49:11;12.85;;;4.18;;
71042;SDS011;58696;52.134;5.500;2023-07-02T07:51:41;12.77;;;5.43;;
71042;SDS011;58696;52.134;5.500;2023-07-02T07:54:08;12.80;;;4.25;;
71042;SDS011;58696;52.134;5.500;2023-07-02T07:56:37;8.75;;;3.72;;
71042;SDS011;58696;52.134;5.500;2023-07-02T07:59:08;10.05;;;3.95;;
71042;SDS011;58696;52.134;5.500;2023-07-02T08:01:39;10.68;;;3.92;;
71042;SDS011;58696;52.134;5.500;2023-07-02T08:04:08;9.15;;;4.38;;
71042;SDS011;58696;52.134;5.500;2023-07-02T08:06:37;9.68;;;4.20;;
71042;SDS011;58696;52.134;5.500;2023-07-02T08:09:07;8.68;;;3.90;;
71042;SDS011;58696;52.134;5.500;2023-07-02T08:11:35;9.68;;;3.60;;
71042;SDS011;58696;52.134;5.500;2023-07-02T08:14:01;8.63;;;3.90;;
71042;SDS011;58696;52.134;5.500;2023-07-02T08:16:31;9.40;;;3.47;;
71042;SDS011;58696;52.134;5.500;2023-07-02T08:19:02;11.52;;;4.00;;
71042;SDS011;58696;52.134;5.500;2023-07-02T08:21:29;12.10;;;4.00;;
71042;SDS011;58696;52.134;5.500;2023-07-02T08:23:58;10.63;;;4.30;;
71042;SDS011;58696;52.134;5.500;2023-07-02T08:26:27;8.85;;;4.47;;
71042;SDS011;58696;52.134;5.500;2023-07-02T08:28:57;7.50;;;3.78;;
71042;SDS011;58696;52.134;5.500;2023-07-02T08:31:26;9.30;;;4.33;;
71042;SDS011;58696;52.134;5.500;2023-07-02T08:33:57;17.52;;;4.53;;
71042;SDS011;58696;52.134;5.500;2023-07-02T08:36:24;12.65;;;4.60;;
71042;SDS011;58696;52.134;5.500;2023-07-02T08:38:51;8.23;;;3.70;;
71042;SDS011;58696;52.134;5.500;2023-07-02T08:41:23;9.55;;;3.83;;
71042;SDS011;58696;52.134;5.500;2023-07-02T08:43:50;12.65;;;4.15;;
71042;SDS011;58696;52.134;5.500;2023-07-02T08:46:23;12.13;;;4.50;;
71042;SDS011;58696;52.134;5.500;2023-07-02T08:48:50;11.93;;;3.92;;
71042;SDS011;58696;52.134;5.500;2023-07-02T08:51:16;6.73;;;4.07;;
71042;SDS011;58696;52.134;5.500;2023-07-02T08:53:49;10.63;;;3.88;;
71042;SDS011;58696;52.134;5.500;2023-07-02T08:56:18;9.80;;;3.53;;
71042;SDS011;58696;52.134;5.500;2023-07-02T08:58:47;9.48;;;3.58;;
71042;SDS011;58696;52.134;5.500;2023-07-02T09:01:15;8.07;;;3.25;;
71042;SDS011;58696;52.134;5.500;2023-07-02T09:03:44;7.38;;;3.72;;
71042;SDS011;58696;52.134;5.500;2023-07-02T09:06:11;9.07;;;3.78;;
71042;SDS011;58696;52.134;5.500;2023-07-02T09:08:43;8.68;;;4.25;;
71042;SDS011;58696;52.134;5.500;2023-07-02T09:11:14;17.25;;;3.33;;
71042;SDS011;58696;52.134;5.500;2023-07-02T09:16:32;12.80;;;3.92;;
71042;SDS011;58696;52.134;5.500;2023-07-02T09:19:03;10.32;;;4.13;;
71042;SDS011;58696;52.134;5.500;2023-07-02T09:21:44;8.07;;;3.90;;
71042;SDS011;58696;52.134;5.500;2023-07-02T09:24:12;11.60;;;3.65;;
71042;SDS011;58696;52.134;5.500;2023-07-02T09:26:43;10.35;;;3.95;;
71042;SDS011;58696;52.134;5.500;2023-07-02T09:29:13;7.47;;;3.53;;
71042;SDS011;58696;52.134;5.500;2023-07-02T09:31:46;8.02;;;3.72;;
71042;SDS011;58696;52.134;5.500;2023-07-02T09:34:34;5.88;;;3.00;;
71042;SDS011;58696;52.134;5.500;2023-07-02T09:37:03;8.65;;;3.05;;
71042;SDS011;58696;52.134;5.500;2023-07-02T09:39:34;7.40;;;2.53;;
71042;SDS011;58696;52.134;5.500;2023-07-02T09:42:04;4.50;;;2.95;;
71042;SDS011;58696;52.134;5.500;2023-07-02T09:44:35;4.68;;;2.42;;
71042;SDS011;58696;52.134;5.500;2023-07-02T09:47:05;8.02;;;2.67;;
71042;SDS011;58696;52.134;5.500;2023-07-02T09:49:33;4.28;;;2.80;;
71042;SDS011;58696;52.134;5.500;2023-07-02T09:52:04;6.22;;;3.05;;
71042;SDS011;58696;52.134;5.500;2023-07-02T09:54:32;6.35;;;2.42;;
71042;SDS011;58696;52.134;5.500;2023-07-02T09:57:03;7.20;;;3.00;;
71042;SDS011;58696;52.134;5.500;2023-07-02T10:01:57;6.47;;;2.60;;
71042;SDS011;58696;52.134;5.500;2023-07-02T10:04:27;5.57;;;2.63;;
71042;SDS011;58696;52.134;5.500;2023-07-02T10:06:57;4.53;;;2.33;;
71042;SDS011;58696;52.134;5.500;2023-07-02T10:09:36;5.63;;;2.20;;
71042;SDS011;58696;52.134;5.500;2023-07-02T10:12:19;13.55;;;3.47;;
71042;SDS011;58696;52.134;5.500;2023-07-02T10:14:51;7.75;;;2.35;;
71042;SDS011;58696;52.134;5.500;2023-07-02T10:17:37;5.57;;;2.13;;
71042;SDS011;58696;52.134;5.500;2023-07-02T10:20:07;4.72;;;2.22;;
71042;SDS011;58696;52.134;5.500;2023-07-02T10:22:44;7.45;;;2.50;;
71042;SDS011;58696;52.134;5.500;2023-07-02T10:25:12;6.25;;;2.30;;
71042;SDS011;58696;52.134;5.500;2023-07-02T10:27:39;2.67;;;1.90;;
71042;SDS011;58696;52.134;5.500;2023-07-02T10:30:09;4.53;;;2.03;;
71042;SDS011;58696;52.134;5.500;2023-07-02T10:32:37;5.07;;;2.47;;
71042;SDS011;58696;52.134;5.500;2023-07-02T10:35:14;4.00;;;2.03;;
71042;SDS011;58696;52.134;5.500;2023-07-02T10:37:46;3.55;;;2.33;;
71042;SDS011;58696;52.134;5.500;2023-07-02T10:40:15;2.97;;;2.20;;
71042;SDS011;58696;52.134;5.500;2023-07-02T10:42:51;5.13;;;2.27;;
71042;SDS011;58696;52.134;5.500;2023-07-02T10:45:19;8.50;;;2.65;;
71042;SDS011;58696;52.134;5.500;2023-07-02T10:47:46;5.18;;;2.50;;
71042;SDS011;58696;52.134;5.500;2023-07-02T10:50:15;5.18;;;2.03;;
71042;SDS011;58696;52.134;5.500;2023-07-02T10:52:42;6.40;;;2.50;;
71042;SDS011;58696;52.134;5.500;2023-07-02T10:55:09;10.20;;;2.10;;
71042;SDS011;58696;52.134;5.500;2023-07-02T10:57:42;7.22;;;2.45;;
71042;SDS011;58696;52.134;5.500;2023-07-02T11:00:11;8.60;;;2.70;;
71042;SDS011;58696;52.134;5.500;2023-07-02T11:02:40;3.67;;;2.22;;
71042;SDS011;58696;52.134;5.500;2023-07-02T11:05:08;4.57;;;2.55;;
71042;SDS011;58696;52.134;5.500;2023-07-02T11:07:39;6.32;;;2.50;;
71042;SDS011;58696;52.134;5.500;2023-07-02T11:15:15;5.68;;;2.85;;
71042;SDS011;58696;52.134;5.500;2023-07-02T11:17:44;8.02;;;2.92;;
71042;SDS011;58696;52.134;5.500;2023-07-02T11:20:13;8.23;;;2.75;;
71042;SDS011;58696;52.134;5.500;2023-07-02T11:22:43;7.78;;;3.00;;
71042;SDS011;58696;52.134;5.500;2023-07-02T11:27:40;4.57;;;2.45;;
71042;SDS011;58696;52.134;5.500;2023-07-02T11:30:10;7.38;;;2.95;;
71042;SDS011;58696;52.134;5.500;2023-07-02T11:32:50;5.13;;;2.80;;
71042;SDS011;58696;52.134;5.500;2023-07-02T11:35:19;6.82;;;2.63;;
71042;SDS011;58696;52.134;5.500;2023-07-02T11:40:21;10.10;;;2.75;;
71042;SDS011;58696;52.134;5.500;2023-07-02T11:42:47;7.90;;;3.28;;
71042;SDS011;58696;52.134;5.500;2023-07-02T11:45:14;4.22;;;2.40;;
71042;SDS011;58696;52.134;5.500;2023-07-02T11:47:40;8.25;;;2.78;;
71042;SDS011;58696;52.134;5.500;2023-07-02T11:50:07;6.00;;;3.10;;
71042;SDS011;58696;52.134;5.500;2023-07-02T11:52:50;6.70;;;2.92;;
71042;SDS011;58696;52.134;5.500;2023-07-02T11:55:19;5.97;;;2.85;;
71042;SDS011;58696;52.134;5.500;2023-07-02T11:57:47;5.43;;;2.90;;
71042;SDS011;58696;52.134;5.500;2023-07-02T12:00:15;12.48;;;3.33;;
71042;SDS011;58696;52.134;5.500;2023-07-02T12:02:42;5.82;;;3.05;;
71042;SDS011;58696;52.134;5.500;2023-07-02T12:05:12;6.20;;;2.92;;
71042;SDS011;58696;52.134;5.500;2023-07-02T12:07:38;11.38;;;3.78;;
71042;SDS011;58696;52.134;5.500;2023-07-02T12:10:07;5.03;;;3.08;;
71042;SDS011;58696;52.134;5.500;2023-07-02T12:12:36;6.80;;;3.10;;
71042;SDS011;58696;52.134;5.500;2023-07-02T12:15:03;5.60;;;3.40;;
71042;SDS011;58696;52.134;5.500;2023-07-02T12:17:30;5.50;;;2.75;;
71042;SDS011;58696;52.134;5.500;2023-07-02T12:19:57;6.07;;;2.50;;
71042;SDS011;58696;52.134;5.500;2023-07-02T12:22:27;8.82;;;3.47;;
71042;SDS011;58696;52.134;5.500;2023-07-02T12:24:54;6.70;;;3.03;;
71042;SDS011;58696;52.134;5.500;2023-07-02T12:27:25;4.68;;;2.90;;
71042;SDS011;58696;52.134;5.500;2023-07-02T12:29:53;4.65;;;2.75;;
71042;SDS011;58696;52.134;5.500;2023-07-02T12:32:20;6.78;;;3.20;;
71042;SDS011;58696;52.134;5.500;2023-07-02T12:34:50;5.03;;;2.80;;
71042;SDS011;58696;52.134;5.500;2023-07-02T12:37:19;5.72;;;3.10;;
71042;SDS011;58696;52.134;5.500;2023-07-02T12:39:47;5.57;;;3.30;;
71042;SDS011;58696;52.134;5.500;2023-07-02T12:42:17;8.57;;;3.20;;
71042;SDS011;58696;52.134;5.500;2023-07-02T12:44:43;5.90;;;3.08;;
71042;SDS011;58696;52.134;5.500;2023-07-02T12:47:10;7.07;;;3.50;;
71042;SDS011;58696;52.134;5.500;2023-07-02T12:49:37;9.13;;;3.13;;
71042;SDS011;58696;52.134;5.500;2023-07-02T12:52:06;7.90;;;3.10;;
71042;SDS011;58696;52.134;5.500;2023-07-02T12:54:36;6.20;;;3.40;;
71042;SDS011;58696;52.134;5.500;2023-07-02T12:57:07;5.75;;;3.40;;
71042;SDS011;58696;52.134;5.500;2023-07-02T12:59:39;4.65;;;2.92;;
71042;SDS011;58696;52.134;5.500;2023-07-02T13:02:09;7.22;;;3.28;;
71042;SDS011;58696;52.134;5.500;2023-07-02T13:04:39;4.32;;;3.03;;
71042;SDS011;58696;52.134;5.500;2023-07-02T13:07:10;8.55;;;3.40;;
71042;SDS011;58696;52.134;5.500;2023-07-02T13:09:39;7.47;;;3.40;;
71042;SDS011;58696;52.134;5.500;2023-07-02T13:12:10;5.50;;;3.20;;
71042;SDS011;58696;52.134;5.500;2023-07-02T13:14:39;7.22;;;3.25;;
71042;SDS011;58696;52.134;5.500;2023-07-02T13:17:07;5.73;;;3.60;;
71042;SDS011;58696;52.134;5.500;2023-07-02T13:19:34;4.85;;;3.35;;
71042;SDS011;58696;52.134;5.500;2023-07-02T13:22:05;6.97;;;3.10;;
71042;SDS011;58696;52.134;5.500;2023-07-02T13:24:35;6.03;;;3.60;;
71042;SDS011;58696;52.134;5.500;2023-07-02T13:27:04;9.57;;;4.03;;
71042;SDS011;58696;52.134;5.500;2023-07-02T13:29:37;7.95;;;3.50;;
71042;SDS011;58696;52.134;5.500;2023-07-02T13:32:03;8.30;;;3.67;;
71042;SDS011;58696;52.134;5.500;2023-07-02T13:34:33;11.32;;;3.30;;
71042;SDS011;58696;52.134;5.500;2023-07-02T13:36:59;7.47;;;3.63;;
71042;SDS011;58696;52.134;5.500;2023-07-02T13:39:30;9.02;;;3.17;;
71042;SDS011;58696;52.134;5.500;2023-07-02T13:41:59;7.65;;;3.08;;
71042;SDS011;58696;52.134;5.500;2023-07-02T13:44:30;5.75;;;3.35;;
71042;SDS011;58696;52.134;5.500;2023-07-02T13:46:57;5.90;;;2.88;;
71042;SDS011;58696;52.134;5.500;2023-07-02T13:49:28;6.65;;;3.05;;
71042;SDS011;58696;52.134;5.500;2023-07-02T13:51:55;6.65;;;3.35;;
71042;SDS011;58696;52.134;5.500;2023-07-02T13:54:22;6.40;;;3.40;;
71042;SDS011;58696;52.134;5.500;2023-07-02T13:56:52;9.00;;;3.85;;
71042;SDS011;58696;52.134;5.500;2023-07-02T13:59:21;6.50;;;3.45;;
71042;SDS011;58696;52.134;5.500;2023-07-02T14:01:49;6.07;;;3.17;;
71042;SDS011;58696;52.134;5.500;2023-07-02T14:04:16;4.97;;;3.25;;
71042;SDS011;58696;52.134;5.500;2023-07-02T14:06:45;7.10;;;3.38;;
71042;SDS011;58696;52.134;5.500;2023-07-02T14:09:12;8.10;;;3.53;;
71042;SDS011;58696;52.134;5.500;2023-07-02T14:11:41;6.30;;;3.60;;
71042;SDS011;58696;52.134;5.500;2023-07-02T14:14:12;8.55;;;3.85;;
71042;SDS011;58696;52.134;5.500;2023-07-02T14:16:39;10.57;;;3.75;;
71042;SDS011;58696;52.134;5.500;2023-07-02T14:19:05;6.75;;;3.08;;
71042;SDS011;58696;52.134;5.500;2023-07-02T14:21:34;5.60;;;3.75;;
71042;SDS011;58696;52.134;5.500;2023-07-02T14:24:06;5.93;;;3.60;;
71042;SDS011;58696;52.134;5.500;2023-07-02T14:26:33;7.45;;;3.00;;
71042;SDS011;58696;52.134;5.500;2023-07-02T14:28:59;8.53;;;3.90;;
71042;SDS011;58696;52.134;5.500;2023-07-02T14:31:29;6.63;;;4.05;;
71042;SDS011;58696;52.134;5.500;2023-07-02T14:33:56;10.77;;;3.67;;
71042;SDS011;58696;52.134;5.500;2023-07-02T14:36:25;7.10;;;3.83;;
71042;SDS011;58696;52.134;5.500;2023-07-02T14:38:51;7.50;;;4.13;;
71042;SDS011;58696;52.134;5.500;2023-07-02T14:41:18;7.17;;;4.50;;
71042;SDS011;58696;52.134;5.500;2023-07-02T14:43:48;7.53;;;4.15;;
71042;SDS011;58696;52.134;5.500;2023-07-02T14:46:15;10.80;;;4.60;;
71042;SDS011;58696;52.134;5.500;2023-07-02T14:48:44;8.05;;;3.90;;
71042;SDS011;58696;52.134;5.500;2023-07-02T14:51:13;7.22;;;3.78;;
71042;SDS011;58696;52.134;5.500;2023-07-02T14:53:42;9.25;;;3.80;;
71042;SDS011;58696;52.134;5.500;2023-07-02T14:56:08;10.77;;;3.88;;
71042;SDS011;58696;52.134;5.500;2023-07-02T14:58:35;6.68;;;4.20;;
71042;SDS011;58696;52.134;5.500;2023-07-02T15:01:04;6.70;;;3.60;;
71042;SDS011;58696;52.134;5.500;2023-07-02T15:03:33;9.43;;;3.90;;
71042;SDS011;58696;52.134;5.500;2023-07-02T15:06:13;7.75;;;3.72;;
71042;SDS011;58696;52.134;5.500;2023-07-02T15:08:42;7.97;;;3.58;;
71042;SDS011;58696;52.134;5.500;2023-07-02T15:11:13;6.93;;;3.33;;
71042;SDS011;58696;52.134;5.500;2023-07-02T15:13:44;8.45;;;3.78;;
71042;SDS011;58696;52.134;5.500;2023-07-02T15:16:14;7.78;;;3.65;;
71042;SDS011;58696;52.134;5.500;2023-07-02T15:18:42;16.40;;;5.20;;